createdAt,value
2022-09-12T00:00:45.301Z,13.50
2022-09-12T00:03:12.419Z,13.50
2022-09-12T00:05:44.390Z,13.50
2022-09-12T00:08:12.575Z,13.50
2022-09-12T00:10:42.052Z,13.50
2022-09-12T00:13:10.133Z,13.50
2022-09-12T00:15:40.402Z,13.50
2022-09-12T00:18:09.575Z,13.50
2022-09-12T00:20:41.157Z,13.40
2022-09-12T00:23:08.220Z,13.40
2022-09-12T00:25:35.346Z,13.40
2022-09-12T00:28:02.656Z,13.40
2022-09-12T00:30:29.684Z,13.30
2022-09-12T00:32:56.666Z,13.30
2022-09-12T00:35:23.768Z,13.20
2022-09-12T00:37:50.738Z,13.20
2022-09-12T00:40:18.120Z,13.10
2022-09-12T00:42:45.100Z,13.10
2022-09-12T00:45:23.295Z,13.20
2022-09-12T00:47:50.608Z,13.20
2022-09-12T00:50:18.612Z,13.30
2022-09-12T00:52:58.655Z,13.30
2022-09-12T00:55:32.276Z,13.30
2022-09-12T00:58:05.845Z,13.30
2022-09-12T01:00:33.005Z,13.30
2022-09-12T01:03:02.124Z,13.30
2022-09-12T01:05:30.110Z,13.20
2022-09-12T01:07:57.616Z,13.20
2022-09-12T01:10:24.597Z,13.20
2022-09-12T01:12:51.729Z,13.20
2022-09-12T01:15:18.916Z,13.20
2022-09-12T01:17:59.560Z,13.10
2022-09-12T01:20:46.542Z,13.00
2022-09-12T01:23:22.090Z,13.00
2022-09-12T01:26:08.113Z,12.90
2022-09-12T01:28:35.135Z,12.80
2022-09-12T01:31:14.303Z,12.80
2022-09-12T01:34:04.771Z,12.80
2022-09-12T01:36:55.195Z,12.70
2022-09-12T01:39:35.914Z,12.70
2022-09-12T01:42:13.833Z,12.70
2022-09-12T01:45:00.378Z,12.60
2022-09-12T01:47:37.692Z,12.60
2022-09-12T01:50:10.431Z,12.60
2022-09-12T01:52:43.343Z,12.60
2022-09-12T01:55:18.286Z,12.60
2022-09-12T01:57:52.795Z,12.60
2022-09-12T02:00:20.539Z,12.60
2022-09-12T02:02:58.059Z,12.50
2022-09-12T02:05:39.336Z,12.50
2022-09-12T02:08:12.061Z,12.40
2022-09-12T02:10:59.348Z,12.40
2022-09-12T02:13:44.740Z,12.30
2022-09-12T02:16:19.014Z,12.30
2022-09-12T02:18:52.278Z,12.30
2022-09-12T02:21:22.625Z,12.30
2022-09-12T02:23:55.359Z,12.20
2022-09-12T02:26:29.630Z,12.20
2022-09-12T02:28:57.552Z,12.20
2022-09-12T02:31:30.323Z,12.20
2022-09-12T02:33:57.352Z,12.20
2022-09-12T02:36:33.531Z,12.10
2022-09-12T02:39:01.469Z,12.10
2022-09-12T02:41:29.015Z,12.00
2022-09-12T02:43:56.255Z,12.00
2022-09-12T02:46:29.027Z,12.00
2022-09-12T02:48:56.817Z,12.00
2022-09-12T02:51:24.189Z,12.00
2022-09-12T02:53:51.503Z,12.00
2022-09-12T02:56:25.714Z,12.00
2022-09-12T02:58:54.593Z,12.00
2022-09-12T03:01:34.877Z,12.00
2022-09-12T03:04:23.000Z,11.90
2022-09-12T03:07:05.789Z,11.90
2022-09-12T03:09:32.796Z,11.90
2022-09-12T03:12:17.157Z,11.90
2022-09-12T03:14:51.778Z,11.80
2022-09-12T03:17:38.807Z,11.80
2022-09-12T03:20:10.903Z,11.80
2022-09-12T03:22:49.298Z,11.80
2022-09-12T03:25:28.392Z,11.70
2022-09-12T03:28:06.236Z,11.70
2022-09-12T03:30:43.194Z,11.60
2022-09-12T03:33:17.171Z,11.60
2022-09-12T03:35:45.382Z,11.50
2022-09-12T03:38:12.853Z,11.50
2022-09-12T03:40:40.212Z,11.50
2022-09-12T03:43:08.781Z,11.50
2022-09-12T03:45:36.992Z,11.50
2022-09-12T03:48:05.267Z,11.50
2022-09-12T03:50:32.690Z,11.40
2022-09-12T03:53:00.526Z,11.30
2022-09-12T03:55:27.802Z,11.30
2022-09-12T03:57:55.524Z,11.20
2022-09-12T04:00:23.321Z,11.20
2022-09-12T04:02:54.384Z,11.30
2022-09-12T04:05:21.420Z,11.30
2022-09-12T04:07:48.751Z,11.30
2022-09-12T04:10:16.378Z,11.20
2022-09-12T04:12:43.992Z,11.20
2022-09-12T04:15:11.324Z,11.20
2022-09-12T04:17:38.362Z,11.10
2022-09-12T04:20:06.312Z,11.10
2022-09-12T04:22:33.781Z,11.10
2022-09-12T04:25:01.043Z,11.10
2022-09-12T04:27:28.755Z,11.10
2022-09-12T04:29:56.439Z,11.10
2022-09-12T04:32:23.582Z,11.20
2022-09-12T04:34:52.385Z,11.10
2022-09-12T04:37:19.590Z,11.10
2022-09-12T04:39:49.313Z,11.10
2022-09-12T04:42:16.796Z,11.00
2022-09-12T04:44:43.933Z,11.10
2022-09-12T04:47:11.034Z,11.10
2022-09-12T04:49:38.057Z,11.10
2022-09-12T04:52:05.349Z,11.10
2022-09-12T04:54:32.757Z,11.00
2022-09-12T04:57:00.129Z,11.10
2022-09-12T04:59:27.772Z,11.10
2022-09-12T05:01:55.164Z,11.10
2022-09-12T05:04:22.260Z,11.20
2022-09-12T05:06:49.670Z,11.20
2022-09-12T05:09:16.750Z,11.30
2022-09-12T05:12:04.263Z,11.30
2022-09-12T05:14:33.166Z,11.40
2022-09-12T05:17:01.869Z,11.50
2022-09-12T05:19:30.943Z,11.50
2022-09-12T05:21:59.050Z,11.60
2022-09-12T05:24:26.157Z,11.70
2022-09-12T05:26:53.316Z,11.70
2022-09-12T05:29:20.597Z,11.80
2022-09-12T05:31:50.208Z,11.90
2022-09-12T05:34:17.265Z,12.00
2022-09-12T05:36:44.448Z,12.00
2022-09-12T05:39:11.547Z,12.10
2022-09-12T05:41:38.652Z,12.20
2022-09-12T05:44:07.502Z,12.30
2022-09-12T05:46:39.878Z,12.40
2022-09-12T05:49:10.081Z,12.60
2022-09-12T05:51:40.000Z,12.70
2022-09-12T05:54:09.024Z,12.90
2022-09-12T05:56:39.685Z,13.00
2022-09-12T05:59:13.058Z,13.20
2022-09-12T06:01:40.833Z,13.30
2022-09-12T06:04:08.221Z,13.40
2022-09-12T06:06:41.638Z,13.50
2022-09-12T06:09:09.541Z,13.70
2022-09-12T06:11:40.302Z,13.80
2022-09-12T06:14:09.157Z,13.90
2022-09-12T06:16:37.294Z,14.10
2022-09-12T06:19:08.188Z,14.20
2022-09-12T06:21:35.508Z,14.30
2022-09-12T06:24:02.870Z,14.50
2022-09-12T06:26:30.663Z,14.60
2022-09-12T06:29:00.808Z,15.20
2022-09-12T06:31:31.560Z,17.20
2022-09-12T06:34:01.475Z,20.30
2022-09-12T06:36:32.188Z,22.90
2022-09-12T06:39:02.245Z,25.70
2022-09-12T06:41:31.443Z,27.60
2022-09-12T06:43:59.938Z,28.80
2022-09-12T06:46:27.915Z,30.20
2022-09-12T06:48:57.092Z,31.20
2022-09-12T06:51:25.010Z,31.00
2022-09-12T06:53:54.490Z,30.70
2022-09-12T06:56:23.357Z,30.60
2022-09-12T06:58:51.687Z,29.80
2022-09-12T07:01:21.459Z,29.40
2022-09-12T07:03:51.136Z,29.80
2022-09-12T07:06:20.622Z,30.10
2022-09-12T07:08:48.655Z,30.50
2022-09-12T07:11:15.676Z,30.70
2022-09-12T07:13:45.702Z,30.90
2022-09-12T07:16:18.693Z,31.10
2022-09-12T07:18:51.280Z,31.40
2022-09-12T07:21:18.736Z,32.10
2022-09-12T07:23:46.151Z,32.50
2022-09-12T07:26:14.891Z,33.80
2022-09-12T07:28:43.019Z,34.10
2022-09-12T07:31:12.829Z,34.50
2022-09-12T07:33:41.301Z,34.40
2022-09-12T07:36:12.387Z,33.70
2022-09-12T07:38:40.585Z,34.00
2022-09-12T07:41:13.134Z,33.20
2022-09-12T07:43:40.787Z,34.20
2022-09-12T07:46:09.033Z,33.90
2022-09-12T07:48:38.200Z,33.40
2022-09-12T07:51:08.291Z,33.70
2022-09-12T07:53:37.980Z,33.40
2022-09-12T07:56:06.510Z,33.70
2022-09-12T07:58:36.590Z,33.40
2022-09-12T08:01:03.752Z,33.40
2022-09-12T08:03:30.929Z,33.40
2022-09-12T08:06:16.580Z,33.20
2022-09-12T08:08:43.995Z,33.50
2022-09-12T08:11:13.633Z,33.70
2022-09-12T08:13:42.095Z,33.80
2022-09-12T08:16:13.653Z,34.10
2022-09-12T08:18:41.231Z,34.00
2022-09-12T08:21:13.824Z,33.80
2022-09-12T08:23:42.222Z,33.90
2022-09-12T08:26:11.038Z,34.10
2022-09-12T08:28:40.509Z,34.00
2022-09-12T08:31:11.240Z,34.10
2022-09-12T08:33:38.551Z,33.80
2022-09-12T08:36:06.548Z,33.10
2022-09-12T08:38:34.836Z,31.50
2022-09-12T08:41:06.315Z,30.50
2022-09-12T08:43:41.310Z,29.80
2022-09-12T08:46:18.586Z,28.70
2022-09-12T08:48:50.152Z,28.20
2022-09-12T08:51:20.028Z,27.70
2022-09-12T08:53:50.722Z,27.30
2022-09-12T08:56:17.838Z,27.30
2022-09-12T08:58:46.660Z,27.10
2022-09-12T09:01:21.436Z,26.60
2022-09-12T09:04:03.225Z,26.50
2022-09-12T09:06:53.464Z,26.30
2022-09-12T09:10:00.462Z,26.30
2022-09-12T09:13:01.043Z,26.10
2022-09-12T09:15:32.676Z,25.90
2022-09-12T09:18:04.310Z,25.60
2022-09-12T09:20:42.679Z,25.60
2022-09-12T09:23:22.412Z,25.70
2022-09-12T09:25:59.917Z,25.90
2022-09-12T09:28:37.864Z,26.20
2022-09-12T09:31:07.004Z,26.20
2022-09-12T09:33:35.614Z,26.00
2022-09-12T09:36:08.174Z,25.70
2022-09-12T09:39:00.821Z,25.60
2022-09-12T09:41:58.205Z,25.70
2022-09-12T09:44:28.369Z,25.80
2022-09-12T09:46:58.253Z,25.80
2022-09-12T09:49:28.840Z,25.90
2022-09-12T09:51:58.878Z,25.90
2022-09-12T09:54:53.275Z,26.00
2022-09-12T09:57:35.899Z,25.80
2022-09-12T10:00:27.218Z,25.80
2022-09-12T10:03:13.783Z,25.90
2022-09-12T10:05:51.439Z,26.00
2022-09-12T10:08:23.207Z,25.80
2022-09-12T10:10:55.485Z,25.90
2022-09-12T10:13:29.002Z,25.80
2022-09-12T10:15:59.043Z,25.90
2022-09-12T10:18:35.740Z,26.40
2022-09-12T10:21:12.625Z,26.80
2022-09-12T10:23:41.397Z,26.90
2022-09-12T10:26:12.648Z,27.30
2022-09-12T10:28:45.537Z,27.30
2022-09-12T10:31:24.329Z,27.10
2022-09-12T10:33:52.975Z,27.20
2022-09-12T10:36:21.179Z,27.40
2022-09-12T10:38:52.798Z,27.60
2022-09-12T10:41:21.876Z,28.00
2022-09-12T10:43:49.857Z,28.10
2022-09-12T10:46:17.974Z,27.90
2022-09-12T10:48:47.138Z,27.40
2022-09-12T10:51:29.704Z,27.00
2022-09-12T10:54:02.617Z,26.70
2022-09-12T10:56:33.693Z,26.70
2022-09-12T10:59:08.415Z,26.60
2022-09-12T11:01:42.145Z,26.60
2022-09-12T11:04:30.425Z,26.20
2022-09-12T11:07:25.427Z,26.30
2022-09-12T11:09:56.083Z,26.30
2022-09-12T11:12:31.765Z,26.30
2022-09-12T11:15:11.486Z,26.20
2022-09-12T11:18:05.896Z,25.90
2022-09-12T11:20:41.002Z,25.60
2022-09-12T11:23:12.468Z,25.50
2022-09-12T11:26:02.848Z,25.60
2022-09-12T11:29:05.459Z,26.00
2022-09-12T11:32:12.395Z,26.20
2022-09-12T11:34:59.583Z,26.30
2022-09-12T11:38:07.583Z,26.40
2022-09-12T11:40:43.704Z,26.40
2022-09-12T11:43:23.917Z,26.40
2022-09-12T11:45:53.187Z,26.50
2022-09-12T11:48:37.706Z,26.60
2022-09-12T11:51:07.230Z,26.60
2022-09-12T11:53:39.164Z,26.90
2022-09-12T11:56:14.609Z,26.90
2022-09-12T11:58:45.171Z,27.10
2022-09-12T12:01:17.560Z,27.30
2022-09-12T12:03:47.297Z,27.50
2022-09-12T12:06:26.784Z,27.50
2022-09-12T12:08:54.384Z,27.50
2022-09-12T12:11:43.394Z,27.50
2022-09-12T12:14:25.228Z,27.50
2022-09-12T12:16:52.527Z,27.40
2022-09-12T12:19:19.725Z,27.40
2022-09-12T12:21:49.300Z,27.40
2022-09-12T12:24:21.163Z,27.20
2022-09-12T12:27:00.188Z,27.00
2022-09-12T12:29:44.563Z,26.60
2022-09-12T12:32:11.626Z,26.60
2022-09-12T12:34:40.043Z,26.70
2022-09-12T12:37:27.265Z,26.60
2022-09-12T12:40:04.889Z,26.40
2022-09-12T12:42:34.299Z,26.30
2022-09-12T12:45:04.424Z,26.40
2022-09-12T12:47:42.915Z,26.40
2022-09-12T12:50:19.656Z,26.30
2022-09-12T12:52:54.228Z,26.40
2022-09-12T12:55:27.436Z,26.40
2022-09-12T12:57:56.994Z,26.40
2022-09-12T13:00:39.971Z,26.40
2022-09-12T13:03:11.415Z,26.40
2022-09-12T13:05:39.890Z,26.30
2022-09-12T13:08:24.709Z,26.20
2022-09-12T13:10:58.107Z,26.20
2022-09-12T13:13:32.321Z,26.40
2022-09-12T13:15:59.824Z,26.50
2022-09-12T13:18:33.580Z,26.60
2022-09-12T13:21:18.923Z,26.40
2022-09-12T13:24:02.769Z,26.30
2022-09-12T13:26:35.930Z,26.20
2022-09-12T13:29:22.516Z,26.20
2022-09-12T13:32:00.787Z,26.30
2022-09-12T13:34:34.115Z,26.10
2022-09-12T13:37:16.588Z,25.90
2022-09-12T13:39:51.488Z,25.80
2022-09-12T13:42:27.080Z,25.60
2022-09-12T13:44:59.061Z,25.60
2022-09-12T13:47:33.048Z,25.40
2022-09-12T13:50:01.465Z,25.50
2022-09-12T13:52:32.622Z,25.80
2022-09-12T13:55:00.668Z,25.80
2022-09-12T13:57:32.197Z,25.90
2022-09-12T14:00:01.470Z,25.70
2022-09-12T14:02:29.730Z,25.80
2022-09-12T14:05:13.243Z,25.90
2022-09-12T14:07:52.570Z,25.90
2022-09-12T14:10:28.178Z,26.10
2022-09-12T14:12:56.902Z,26.10
2022-09-12T14:15:30.181Z,26.20
2022-09-12T14:18:01.303Z,26.20
2022-09-12T14:20:32.578Z,25.90
2022-09-12T14:23:03.810Z,25.70
2022-09-12T14:25:41.129Z,25.60
2022-09-12T14:28:13.685Z,25.70
2022-09-12T14:30:41.059Z,25.90
2022-09-12T14:33:11.442Z,26.10
2022-09-12T14:35:43.777Z,26.30
2022-09-12T14:38:22.888Z,26.40
2022-09-12T14:40:59.117Z,26.40
2022-09-12T14:43:30.438Z,26.30
2022-09-12T14:46:32.368Z,26.20
2022-09-12T14:49:09.823Z,26.30
2022-09-12T14:51:52.890Z,26.30
2022-09-12T14:54:37.587Z,26.10
2022-09-12T14:57:19.351Z,26.00
2022-09-12T14:59:46.473Z,25.70
2022-09-12T15:02:15.522Z,25.60
2022-09-12T15:04:45.458Z,25.50
2022-09-12T15:07:15.864Z,25.60
2022-09-12T15:09:47.223Z,25.40
2022-09-12T15:12:14.467Z,25.30
2022-09-12T15:14:41.546Z,25.20
2022-09-12T15:17:08.660Z,25.20
2022-09-12T15:19:35.640Z,25.20
2022-09-12T15:22:02.798Z,25.10
2022-09-12T15:24:29.839Z,25.00
2022-09-12T15:26:57.033Z,24.90
2022-09-12T15:29:24.019Z,24.70
2022-09-12T15:31:51.714Z,24.60
2022-09-12T15:34:19.652Z,24.50
2022-09-12T15:36:46.811Z,24.40
2022-09-12T15:39:13.836Z,24.30
2022-09-12T15:41:41.094Z,24.10
2022-09-12T15:44:12.369Z,24.00
2022-09-12T15:46:42.307Z,23.90
2022-09-12T15:49:09.561Z,23.70
2022-09-12T15:51:36.548Z,23.70
2022-09-12T15:54:04.815Z,23.60
2022-09-12T15:56:31.864Z,23.50
2022-09-12T15:59:00.043Z,23.40
2022-09-12T16:01:29.078Z,23.30
2022-09-12T16:03:56.975Z,23.10
2022-09-12T16:06:24.994Z,23.00
2022-09-12T16:08:52.193Z,22.90
2022-09-12T16:11:23.954Z,22.90
2022-09-12T16:13:53.955Z,22.80
2022-09-12T16:16:21.783Z,22.80
2022-09-12T16:18:49.135Z,22.70
2022-09-12T16:21:16.338Z,22.60
2022-09-12T16:23:44.535Z,22.50
2022-09-12T16:26:11.739Z,22.40
2022-09-12T16:28:39.054Z,22.30
2022-09-12T16:31:07.851Z,22.20
2022-09-12T16:33:35.294Z,22.10
2022-09-12T16:36:12.120Z,22.00
2022-09-12T16:38:45.916Z,21.80
2022-09-12T16:41:14.262Z,21.70
2022-09-12T16:43:42.099Z,21.50
2022-09-12T16:46:14.095Z,21.50
2022-09-12T16:48:51.567Z,21.30
2022-09-12T16:51:21.093Z,21.20
2022-09-12T16:53:48.859Z,21.00
2022-09-12T16:56:16.811Z,20.80
2022-09-12T16:58:44.350Z,20.70
2022-09-12T17:01:14.972Z,20.50
2022-09-12T17:03:43.150Z,20.50
2022-09-12T17:06:13.249Z,20.40
2022-09-12T17:08:42.963Z,20.30
2022-09-12T17:11:12.849Z,20.20
2022-09-12T17:14:03.122Z,20.10
2022-09-12T17:16:29.043Z,20.00
2022-09-12T17:18:56.239Z,19.90
2022-09-12T17:21:23.505Z,19.70
2022-09-12T17:23:51.059Z,19.60
2022-09-12T17:26:18.280Z,19.50
2022-09-12T17:28:45.326Z,19.40
2022-09-12T17:31:14.724Z,19.40
2022-09-12T17:33:42.595Z,19.20
2022-09-12T17:36:15.247Z,19.10
2022-09-12T17:38:43.775Z,18.90
2022-09-12T17:41:16.202Z,18.80
2022-09-12T17:43:55.707Z,18.80
2022-09-12T17:46:25.982Z,18.70
2022-09-12T17:48:55.251Z,18.70
2022-09-12T17:51:25.051Z,18.60
2022-09-12T17:54:02.085Z,18.50
2022-09-12T17:56:31.147Z,18.30
2022-09-12T17:58:59.439Z,18.20
2022-09-12T18:01:47.560Z,18.00
2022-09-12T18:04:15.665Z,17.90
2022-09-12T18:06:48.146Z,17.80
2022-09-12T18:09:19.636Z,17.60
2022-09-12T18:11:48.249Z,17.60
2022-09-12T18:14:17.138Z,17.60
2022-09-12T18:16:45.706Z,17.60
2022-09-12T18:19:13.097Z,17.60
2022-09-12T18:21:40.416Z,17.60
2022-09-12T18:24:07.805Z,17.60
2022-09-12T18:26:35.005Z,17.50
2022-09-12T18:29:02.871Z,17.40
2022-09-12T18:31:31.608Z,17.30
2022-09-12T18:34:01.410Z,17.30
2022-09-12T18:36:30.208Z,17.30
2022-09-12T18:38:59.194Z,17.20
2022-09-12T18:41:29.067Z,17.20
2022-09-12T18:43:58.406Z,17.20
2022-09-12T18:46:26.662Z,17.10
2022-09-12T18:48:57.758Z,17.10
2022-09-12T18:51:31.609Z,17.10
2022-09-12T18:54:03.822Z,17.00
2022-09-12T18:56:34.383Z,16.90
2022-09-12T18:59:03.202Z,16.90
2022-09-12T19:01:34.339Z,16.80
2022-09-12T19:04:04.803Z,16.60
2022-09-12T19:06:34.747Z,16.50
2022-09-12T19:09:07.328Z,16.40
2022-09-12T19:11:36.826Z,16.20
2022-09-12T19:14:04.268Z,16.10
2022-09-12T19:16:32.390Z,16.10
2022-09-12T19:18:59.897Z,16.10
2022-09-12T19:21:30.116Z,16.00
2022-09-12T19:24:00.272Z,16.00
2022-09-12T19:26:28.722Z,15.90
2022-09-12T19:28:56.671Z,15.90
2022-09-12T19:31:24.846Z,15.90
2022-09-12T19:33:52.487Z,15.90
2022-09-12T19:39:09.499Z,15.80
2022-09-12T19:41:37.019Z,15.90
2022-09-12T19:44:05.092Z,15.80
2022-09-12T19:46:32.308Z,15.80
2022-09-12T19:48:59.404Z,15.80
2022-09-12T19:51:26.961Z,15.80
2022-09-12T19:53:55.072Z,15.70
2022-09-12T19:56:22.836Z,15.70
2022-09-12T19:58:55.780Z,15.70
2022-09-12T20:01:30.105Z,15.60
2022-09-12T20:03:58.887Z,15.60
2022-09-12T20:06:26.922Z,15.60
2022-09-12T20:08:54.623Z,15.60
2022-09-12T20:11:23.812Z,15.60
2022-09-12T20:13:51.663Z,15.60
2022-09-12T20:16:22.594Z,15.60
2022-09-12T20:18:55.424Z,15.60
2022-09-12T20:21:25.794Z,15.60
2022-09-12T20:23:53.008Z,15.50
2022-09-12T20:26:20.650Z,15.50
2022-09-12T20:28:48.202Z,15.40
2022-09-12T20:31:16.761Z,15.30
2022-09-12T20:33:49.826Z,15.30
2022-09-12T20:36:20.735Z,15.20
2022-09-12T20:38:51.361Z,15.10
2022-09-12T20:41:19.886Z,15.10
2022-09-12T20:43:51.281Z,15.10
2022-09-12T20:46:21.865Z,15.00
2022-09-12T20:48:50.453Z,15.00
2022-09-12T20:51:18.643Z,15.00
2022-09-12T20:53:46.009Z,15.00
2022-09-12T20:56:14.507Z,14.90
2022-09-12T20:58:44.115Z,14.80
2022-09-12T21:01:12.934Z,14.80
2022-09-12T21:03:40.968Z,14.90
2022-09-12T21:06:09.919Z,14.90
2022-09-12T21:08:37.992Z,15.00
2022-09-12T21:11:05.442Z,15.00
2022-09-12T21:13:33.085Z,15.00
2022-09-12T21:16:00.923Z,14.90
2022-09-12T21:18:28.408Z,14.90
2022-09-12T21:20:56.095Z,14.90
2022-09-12T21:23:25.369Z,14.90
2022-09-12T21:25:52.961Z,14.80
2022-09-12T21:28:21.166Z,14.80
2022-09-12T21:30:49.305Z,14.70
2022-09-12T21:33:17.320Z,14.70
2022-09-12T21:35:44.543Z,14.70
2022-09-12T21:38:11.810Z,14.60
2022-09-12T21:40:38.943Z,14.50
2022-09-12T21:43:10.457Z,14.50
2022-09-12T21:45:40.008Z,14.40
2022-09-12T21:48:07.789Z,14.50
2022-09-12T21:50:34.872Z,14.40
2022-09-12T21:53:02.221Z,14.40
2022-09-12T21:55:29.474Z,14.40
2022-09-12T21:57:57.048Z,14.40
2022-09-12T22:00:24.352Z,14.40
2022-09-12T22:02:51.664Z,14.40
2022-09-12T22:05:19.887Z,14.30
2022-09-12T22:07:47.261Z,14.20
2022-09-12T22:10:15.270Z,14.10
2022-09-12T22:12:46.084Z,14.10
2022-09-12T22:15:38.843Z,14.10
2022-09-12T22:18:01.936Z,14.10
2022-09-12T22:20:28.928Z,14.00
2022-09-12T22:23:16.036Z,14.10
2022-09-12T22:25:43.146Z,14.10
2022-09-12T22:28:10.505Z,14.10
2022-09-12T22:30:38.710Z,14.10
2022-09-12T22:33:05.678Z,14.10
2022-09-12T22:35:32.927Z,14.00
2022-09-12T22:38:00.009Z,13.90
2022-09-12T22:40:27.127Z,13.90
2022-09-12T22:42:54.387Z,13.90
2022-09-12T22:45:21.629Z,13.90
2022-09-12T22:47:48.752Z,13.80
2022-09-12T22:50:16.146Z,13.80
2022-09-12T22:52:43.142Z,13.70
2022-09-12T22:55:10.612Z,13.70
2022-09-12T22:57:37.894Z,13.60
2022-09-12T23:00:08.539Z,13.60
2022-09-12T23:02:35.700Z,13.60
2022-09-12T23:05:02.888Z,13.50
2022-09-12T23:07:29.874Z,13.50
2022-09-12T23:09:57.026Z,13.60
2022-09-12T23:12:24.890Z,13.50
2022-09-12T23:14:52.190Z,13.50
2022-09-12T23:17:19.292Z,13.40
2022-09-12T23:19:46.384Z,13.40
2022-09-12T23:22:13.507Z,13.40
2022-09-12T23:24:40.660Z,13.40
2022-09-12T23:27:08.042Z,13.30
2022-09-12T23:29:35.593Z,13.30
2022-09-12T23:32:04.437Z,13.20
2022-09-12T23:34:31.558Z,13.20
2022-09-12T23:36:58.600Z,13.20
2022-09-12T23:39:25.720Z,13.20
2022-09-12T23:41:53.035Z,13.20
2022-09-12T23:44:20.469Z,13.20
2022-09-12T23:46:47.619Z,13.20
2022-09-12T23:49:14.953Z,13.20
2022-09-12T23:51:42.038Z,13.20
2022-09-12T23:54:09.372Z,13.10
2022-09-12T23:56:36.479Z,13.00
2022-09-12T23:59:03.666Z,13.00
